<?xml version='1.0' encoding='UTF-8'?><gpx version="1.1" creator="JPX - https://github.com/jenetics/jpx" xmlns="http://www.topografix.com/GPX/1/1"><trk><trkseg><trkpt lat="44.4140895" lon="8.9495284"><ele>67.99999999999999</ele><time>2026-04-30T15:58:43.705Z</time></trkpt><trkpt lat="44.4140576" lon="8.9494486"><ele>68.0</ele><time>2026-04-30T15:58:55.709Z</time></trkpt><trkpt lat="44.4139991" lon="8.9494047"><ele>68.0</ele><time>2026-04-30T15:59:06.706Z</time></trkpt><trkpt lat="44.4139339" lon="8.949378"><ele>68.0</ele><time>2026-04-30T15:59:16.613Z</time></trkpt><trkpt lat="44.4139982" lon="8.9493441"><ele>68.0</ele><time>2026-04-30T15:59:29.61Z</time></trkpt><trkpt lat="44.4140689" lon="8.9493353"><ele>67.99999999999999</ele><time>2026-04-30T15:59:37.706Z</time></trkpt><trkpt lat="44.4140862" lon="8.9492426"><ele>68.0</ele><time>2026-04-30T15:59:46.706Z</time></trkpt><trkpt lat="44.4140698" lon="8.949157"><ele>70.71428571428571</ele><time>2026-04-30T15:59:51.715Z</time></trkpt><trkpt lat="44.4140473" lon="8.9490632"><ele>73.42857142857143</ele><time>2026-04-30T15:59:57.705Z</time></trkpt><trkpt lat="44.414034" lon="8.9489736"><ele>76.14285714285714</ele><time>2026-04-30T16:00:02.705Z</time></trkpt><trkpt lat="44.4140368" lon="8.948866"><ele>78.85714285714286</ele><time>2026-04-30T16:00:08.619Z</time></trkpt><trkpt lat="44.4140418" lon="8.9487652"><ele>81.57142857142857</ele><time>2026-04-30T16:00:12.706Z</time></trkpt><trkpt lat="44.4140385" lon="8.9486705"><ele>84.28571428571428</ele><time>2026-04-30T16:00:16.661Z</time></trkpt><trkpt lat="44.4140404" lon="8.9485759"><ele>87.0</ele><time>2026-04-30T16:00:22.704Z</time></trkpt><trkpt lat="44.4140435" lon="8.948474"><ele>87.71428571428571</ele><time>2026-04-30T16:00:28.704Z</time></trkpt><trkpt lat="44.414043" lon="8.9483719"><ele>88.42857142857143</ele><time>2026-04-30T16:00:35.792Z</time></trkpt><trkpt lat="44.4140552" lon="8.9482836"><ele>89.14285714285714</ele><time>2026-04-30T16:00:42.795Z</time></trkpt><trkpt lat="44.4140515" lon="8.9481945"><ele>89.85714285714286</ele><time>2026-04-30T16:00:49.705Z</time></trkpt><trkpt lat="44.4140492" lon="8.9481051"><ele>90.57142857142857</ele><time>2026-04-30T16:00:57.716Z</time></trkpt><trkpt lat="44.4140376" lon="8.9479907"><ele>91.28571428571429</ele><time>2026-04-30T16:01:01.69Z</time></trkpt><trkpt lat="44.414036" lon="8.947896"><ele>92.0</ele><time>2026-04-30T16:01:04.704Z</time></trkpt><trkpt lat="44.414037" lon="8.9477969"><ele>92.0</ele><time>2026-04-30T16:01:09.707Z</time></trkpt><trkpt lat="44.4139897" lon="8.9477139"><ele>92.0</ele><time>2026-04-30T16:01:15.705Z</time></trkpt><trkpt lat="44.4139224" lon="8.9476592"><ele>92.0</ele><time>2026-04-30T16:01:21.61Z</time></trkpt><trkpt lat="44.4138602" lon="8.9476442"><ele>92.0</ele><time>2026-04-30T16:01:31.704Z</time></trkpt><trkpt lat="44.4138234" lon="8.9475598"><ele>92.0</ele><time>2026-04-30T16:01:37.651Z</time></trkpt><trkpt lat="44.4138459" lon="8.9474743"><ele>92.0</ele><time>2026-04-30T16:01:40.705Z</time></trkpt><trkpt lat="44.4138419" lon="8.9473778"><ele>92.0</ele><time>2026-04-30T16:01:46.624Z</time></trkpt><trkpt lat="44.4138778" lon="8.9473014"><ele>92.14285714285715</ele><time>2026-04-30T16:01:49.674Z</time></trkpt><trkpt lat="44.4138694" lon="8.9471953"><ele>92.28571428571428</ele><time>2026-04-30T16:01:54.705Z</time></trkpt><trkpt lat="44.4138233" lon="8.9471204"><ele>92.42857142857143</ele><time>2026-04-30T16:01:58.705Z</time></trkpt><trkpt lat="44.4137858" lon="8.9470345"><ele>92.57142857142858</ele><time>2026-04-30T16:02:03.715Z</time></trkpt><trkpt lat="44.4137414" lon="8.9469532"><ele>92.71428571428572</ele><time>2026-04-30T16:02:08.705Z</time></trkpt><trkpt lat="44.4136794" lon="8.946889"><ele>92.85714285714286</ele><time>2026-04-30T16:02:13.801Z</time></trkpt><trkpt lat="44.4136083" lon="8.9468413"><ele>93.0</ele><time>2026-04-30T16:02:18.749Z</time></trkpt><trkpt lat="44.4135822" lon="8.9467438"><ele>91.57142857142858</ele><time>2026-04-30T16:02:22.705Z</time></trkpt><trkpt lat="44.4135779" lon="8.9466509"><ele>90.14285714285714</ele><time>2026-04-30T16:02:26.665Z</time></trkpt><trkpt lat="44.4135605" lon="8.9465431"><ele>88.71428571428572</ele><time>2026-04-30T16:02:30.704Z</time></trkpt><trkpt lat="44.4135561" lon="8.9464503"><ele>87.28571428571429</ele><time>2026-04-30T16:02:34.704Z</time></trkpt><trkpt lat="44.4135341" lon="8.9463508"><ele>85.85714285714286</ele><time>2026-04-30T16:02:38.703Z</time></trkpt><trkpt lat="44.4134976" lon="8.9462616"><ele>84.42857142857143</ele><time>2026-04-30T16:02:42.705Z</time></trkpt><trkpt lat="44.4134445" lon="8.9461792"><ele>83.0</ele><time>2026-04-30T16:02:47.704Z</time></trkpt><trkpt lat="44.4134273" lon="8.9460932"><ele>83.0</ele><time>2026-04-30T16:02:51.703Z</time></trkpt><trkpt lat="44.4133888" lon="8.946012"><ele>83.0</ele><time>2026-04-30T16:02:56.704Z</time></trkpt><trkpt lat="44.4133503" lon="8.9459275"><ele>83.0</ele><time>2026-04-30T16:03:01.705Z</time></trkpt><trkpt lat="44.4133139" lon="8.9458392"><ele>83.0</ele><time>2026-04-30T16:03:07.705Z</time></trkpt><trkpt lat="44.4132773" lon="8.9457573"><ele>83.0</ele><time>2026-04-30T16:03:12.621Z</time></trkpt><trkpt lat="44.4132495" lon="8.9456658"><ele>83.0</ele><time>2026-04-30T16:03:17.704Z</time></trkpt><trkpt lat="44.4132081" lon="8.9455844"><ele>83.0</ele><time>2026-04-30T16:03:22.704Z</time></trkpt><trkpt lat="44.4131748" lon="8.9454981"><ele>82.85714285714285</ele><time>2026-04-30T16:03:27.705Z</time></trkpt><trkpt lat="44.4131365" lon="8.9454094"><ele>82.71428571428572</ele><time>2026-04-30T16:03:32.711Z</time></trkpt><trkpt lat="44.4131085" lon="8.9453161"><ele>82.57142857142857</ele><time>2026-04-30T16:03:37.742Z</time></trkpt><trkpt lat="44.4130749" lon="8.945239"><ele>82.42857142857142</ele><time>2026-04-30T16:03:42.705Z</time></trkpt><trkpt lat="44.413034" lon="8.9451479"><ele>82.28571428571428</ele><time>2026-04-30T16:03:47.704Z</time></trkpt><trkpt lat="44.4129967" lon="8.9450601"><ele>82.14285714285714</ele><time>2026-04-30T16:03:51.705Z</time></trkpt><trkpt lat="44.4129577" lon="8.9449823"><ele>82.0</ele><time>2026-04-30T16:03:55.703Z</time></trkpt><trkpt lat="44.4129217" lon="8.9449046"><ele>80.42857142857142</ele><time>2026-04-30T16:04:00.703Z</time></trkpt><trkpt lat="44.4128836" lon="8.9448278"><ele>78.85714285714286</ele><time>2026-04-30T16:04:05.679Z</time></trkpt><trkpt lat="44.4128493" lon="8.9447505"><ele>77.28571428571428</ele><time>2026-04-30T16:04:10.705Z</time></trkpt><trkpt lat="44.412813" lon="8.9446717"><ele>75.71428571428571</ele><time>2026-04-30T16:04:15.637Z</time></trkpt><trkpt lat="44.412779" lon="8.9445971"><ele>74.14285714285714</ele><time>2026-04-30T16:04:21.704Z</time></trkpt><trkpt lat="44.4127333" lon="8.944516"><ele>72.57142857142857</ele><time>2026-04-30T16:04:26.705Z</time></trkpt><trkpt lat="44.4126985" lon="8.9444158"><ele>71.0</ele><time>2026-04-30T16:04:31.704Z</time></trkpt><trkpt lat="44.4126633" lon="8.9443233"><ele>71.0</ele><time>2026-04-30T16:04:36.705Z</time></trkpt><trkpt lat="44.4126315" lon="8.9442402"><ele>71.0</ele><time>2026-04-30T16:04:41.705Z</time></trkpt><trkpt lat="44.4126026" lon="8.9441558"><ele>71.0</ele><time>2026-04-30T16:04:45.705Z</time></trkpt><trkpt lat="44.4125654" lon="8.9440802"><ele>71.0</ele><time>2026-04-30T16:04:49.705Z</time></trkpt><trkpt lat="44.4125376" lon="8.9439977"><ele>71.0</ele><time>2026-04-30T16:04:54.704Z</time></trkpt><trkpt lat="44.4124964" lon="8.9439068"><ele>71.0</ele><time>2026-04-30T16:04:59.705Z</time></trkpt><trkpt lat="44.4124592" lon="8.9438356"><ele>71.0</ele><time>2026-04-30T16:05:03.705Z</time></trkpt><trkpt lat="44.4124219" lon="8.943744"><ele>72.0</ele><time>2026-04-30T16:05:09.705Z</time></trkpt><trkpt lat="44.4123884" lon="8.9436533"><ele>73.0</ele><time>2026-04-30T16:05:14.704Z</time></trkpt><trkpt lat="44.4123499" lon="8.9435814"><ele>74.0</ele><time>2026-04-30T16:05:18.718Z</time></trkpt><trkpt lat="44.4123155" lon="8.9435022"><ele>75.0</ele><time>2026-04-30T16:05:22.704Z</time></trkpt><trkpt lat="44.4122827" lon="8.9434212"><ele>76.0</ele><time>2026-04-30T16:05:27.703Z</time></trkpt><trkpt lat="44.4122558" lon="8.9433406"><ele>77.0</ele><time>2026-04-30T16:05:31.717Z</time></trkpt><trkpt lat="44.4122237" lon="8.9432474"><ele>78.0</ele><time>2026-04-30T16:05:36.704Z</time></trkpt><trkpt lat="44.4121766" lon="8.9431632"><ele>77.57142857142857</ele><time>2026-04-30T16:05:41.738Z</time></trkpt><trkpt lat="44.4121412" lon="8.9430687"><ele>77.14285714285714</ele><time>2026-04-30T16:05:46.684Z</time></trkpt><trkpt lat="44.4121063" lon="8.942986"><ele>76.71428571428571</ele><time>2026-04-30T16:05:51.641Z</time></trkpt><trkpt lat="44.4120685" lon="8.9429055"><ele>76.28571428571428</ele><time>2026-04-30T16:05:56.601Z</time></trkpt><trkpt lat="44.4120275" lon="8.9428258"><ele>75.85714285714286</ele><time>2026-04-30T16:06:02.568Z</time></trkpt><trkpt lat="44.4119927" lon="8.9427469"><ele>75.42857142857142</ele><time>2026-04-30T16:06:07.544Z</time></trkpt><trkpt lat="44.411957" lon="8.9426662"><ele>75.0</ele><time>2026-04-30T16:06:12.482Z</time></trkpt><trkpt lat="44.4119216" lon="8.9425784"><ele>74.85714285714285</ele><time>2026-04-30T16:06:16.704Z</time></trkpt><trkpt lat="44.4118807" lon="8.9424833"><ele>74.71428571428571</ele><time>2026-04-30T16:06:21.722Z</time></trkpt><trkpt lat="44.4118466" lon="8.9423977"><ele>74.57142857142857</ele><time>2026-04-30T16:06:26.704Z</time></trkpt><trkpt lat="44.4118138" lon="8.942313"><ele>74.42857142857142</ele><time>2026-04-30T16:06:31.705Z</time></trkpt><trkpt lat="44.4117705" lon="8.9422435"><ele>74.28571428571428</ele><time>2026-04-30T16:06:36.704Z</time></trkpt><trkpt lat="44.4117352" lon="8.9421586"><ele>74.14285714285714</ele><time>2026-04-30T16:06:41.705Z</time></trkpt><trkpt lat="44.4116979" lon="8.9420837"><ele>74.0</ele><time>2026-04-30T16:06:46.705Z</time></trkpt><trkpt lat="44.4116589" lon="8.9419891"><ele>74.0</ele><time>2026-04-30T16:06:51.703Z</time></trkpt><trkpt lat="44.4116176" lon="8.9419076"><ele>74.0</ele><time>2026-04-30T16:06:56.641Z</time></trkpt><trkpt lat="44.4115767" lon="8.9418345"><ele>74.0</ele><time>2026-04-30T16:07:01.705Z</time></trkpt><trkpt lat="44.4115436" lon="8.9417469"><ele>74.0</ele><time>2026-04-30T16:07:06.704Z</time></trkpt><trkpt lat="44.4114966" lon="8.9416725"><ele>74.0</ele><time>2026-04-30T16:07:11.705Z</time></trkpt><trkpt lat="44.4114636" lon="8.9415815"><ele>74.0</ele><time>2026-04-30T16:07:16.713Z</time></trkpt><trkpt lat="44.4114319" lon="8.9414979"><ele>74.0</ele><time>2026-04-30T16:07:21.705Z</time></trkpt><trkpt lat="44.4113997" lon="8.9413981"><ele>73.28571428571429</ele><time>2026-04-30T16:07:27.703Z</time></trkpt><trkpt lat="44.4113597" lon="8.9413198"><ele>72.57142857142857</ele><time>2026-04-30T16:07:32.705Z</time></trkpt><trkpt lat="44.4113059" lon="8.9412446"><ele>71.85714285714286</ele><time>2026-04-30T16:07:38.704Z</time></trkpt><trkpt lat="44.4112854" lon="8.9411516"><ele>71.14285714285714</ele><time>2026-04-30T16:07:43.705Z</time></trkpt><trkpt lat="44.411256" lon="8.9410659"><ele>70.42857142857143</ele><time>2026-04-30T16:07:48.227Z</time></trkpt><trkpt lat="44.4112245" lon="8.940976"><ele>69.71428571428572</ele><time>2026-04-30T16:07:53.705Z</time></trkpt><trkpt lat="44.4111861" lon="8.940889"><ele>69.0</ele><time>2026-04-30T16:07:58.705Z</time></trkpt><trkpt lat="44.4111435" lon="8.9408055"><ele>66.85714285714286</ele><time>2026-04-30T16:08:03.704Z</time></trkpt><trkpt lat="44.4111035" lon="8.9407173"><ele>64.71428571428572</ele><time>2026-04-30T16:08:08.709Z</time></trkpt><trkpt lat="44.411064" lon="8.9406254"><ele>62.57142857142857</ele><time>2026-04-30T16:08:14.704Z</time></trkpt><trkpt lat="44.411021" lon="8.9405355"><ele>60.42857142857143</ele><time>2026-04-30T16:08:19.705Z</time></trkpt><trkpt lat="44.4109873" lon="8.9404586"><ele>58.285714285714285</ele><time>2026-04-30T16:08:23.723Z</time></trkpt><trkpt lat="44.4109516" lon="8.9403727"><ele>56.14285714285714</ele><time>2026-04-30T16:08:28.705Z</time></trkpt><trkpt lat="44.4109195" lon="8.9402924"><ele>54.0</ele><time>2026-04-30T16:08:33.5Z</time></trkpt><trkpt lat="44.4108809" lon="8.9402077"><ele>54.0</ele><time>2026-04-30T16:08:39.705Z</time></trkpt><trkpt lat="44.4108527" lon="8.9401093"><ele>54.0</ele><time>2026-04-30T16:08:45.724Z</time></trkpt><trkpt lat="44.4108136" lon="8.9400373"><ele>54.0</ele><time>2026-04-30T16:08:49.722Z</time></trkpt><trkpt lat="44.4107632" lon="8.9399551"><ele>54.0</ele><time>2026-04-30T16:08:56.705Z</time></trkpt><trkpt lat="44.4107278" lon="8.9398798"><ele>54.0</ele><time>2026-04-30T16:09:00.704Z</time></trkpt><trkpt lat="44.4106939" lon="8.9397921"><ele>54.0</ele><time>2026-04-30T16:09:06.566Z</time></trkpt><trkpt lat="44.4106669" lon="8.9396967"><ele>54.0</ele><time>2026-04-30T16:09:12.704Z</time></trkpt><trkpt lat="44.410629" lon="8.9396139"><ele>54.0</ele><time>2026-04-30T16:09:17.705Z</time></trkpt><trkpt lat="44.4105965" lon="8.9395252"><ele>54.0</ele><time>2026-04-30T16:09:22.705Z</time></trkpt><trkpt lat="44.4105648" lon="8.9394479"><ele>54.0</ele><time>2026-04-30T16:09:26.704Z</time></trkpt><trkpt lat="44.4105263" lon="8.9393567"><ele>54.0</ele><time>2026-04-30T16:09:31.703Z</time></trkpt><trkpt lat="44.4104993" lon="8.93927"><ele>54.0</ele><time>2026-04-30T16:09:36.705Z</time></trkpt><trkpt lat="44.4104712" lon="8.9391904"><ele>54.0</ele><time>2026-04-30T16:09:41.705Z</time></trkpt><trkpt lat="44.4104399" lon="8.9391086"><ele>54.0</ele><time>2026-04-30T16:09:45.704Z</time></trkpt><trkpt lat="44.4104041" lon="8.9390173"><ele>52.42857142857143</ele><time>2026-04-30T16:09:50.705Z</time></trkpt><trkpt lat="44.4103657" lon="8.9389288"><ele>50.857142857142854</ele><time>2026-04-30T16:09:55.705Z</time></trkpt><trkpt lat="44.4103235" lon="8.9388528"><ele>49.28571428571429</ele><time>2026-04-30T16:09:59.704Z</time></trkpt><trkpt lat="44.4102613" lon="8.9388075"><ele>47.714285714285715</ele><time>2026-04-30T16:10:04.705Z</time></trkpt><trkpt lat="44.4101936" lon="8.9388246"><ele>46.142857142857146</ele><time>2026-04-30T16:10:08.704Z</time></trkpt><trkpt lat="44.4101244" lon="8.9388481"><ele>44.57142857142858</ele><time>2026-04-30T16:10:12.667Z</time></trkpt><trkpt lat="44.4100756" lon="8.938909"><ele>43.0</ele><time>2026-04-30T16:10:17.704Z</time></trkpt><trkpt lat="44.4099982" lon="8.9389334"><ele>43.00000000000001</ele><time>2026-04-30T16:10:22.705Z</time></trkpt><trkpt lat="44.4099321" lon="8.9388857"><ele>43.0</ele><time>2026-04-30T16:10:25.729Z</time></trkpt><trkpt lat="44.4099011" lon="8.9387973"><ele>43.0</ele><time>2026-04-30T16:10:28.8Z</time></trkpt><trkpt lat="44.4098623" lon="8.9387041"><ele>43.0</ele><time>2026-04-30T16:10:32.705Z</time></trkpt><trkpt lat="44.4098184" lon="8.9386344"><ele>43.0</ele><time>2026-04-30T16:10:36.716Z</time></trkpt><trkpt lat="44.4097616" lon="8.9385727"><ele>43.00000000000001</ele><time>2026-04-30T16:10:41.71Z</time></trkpt><trkpt lat="44.4097201" lon="8.9385058"><ele>43.0</ele><time>2026-04-30T16:10:47.705Z</time></trkpt><trkpt lat="44.4097089" lon="8.9384058"><ele>43.00000000000001</ele><time>2026-04-30T16:12:16.704Z</time></trkpt><trkpt lat="44.409676" lon="8.9383142"><ele>43.0</ele><time>2026-04-30T16:12:22.634Z</time></trkpt><trkpt lat="44.4096399" lon="8.9382306"><ele>43.0</ele><time>2026-04-30T16:12:29.704Z</time></trkpt><trkpt lat="44.4096523" lon="8.9381434"><ele>43.0</ele><time>2026-04-30T16:12:34.705Z</time></trkpt><trkpt lat="44.4096675" lon="8.9380454"><ele>43.0</ele><time>2026-04-30T16:12:39.633Z</time></trkpt><trkpt lat="44.4096888" lon="8.9379509"><ele>43.00000000000001</ele><time>2026-04-30T16:12:45.705Z</time></trkpt><trkpt lat="44.4097274" lon="8.9378764"><ele>43.0</ele><time>2026-04-30T16:12:51.704Z</time></trkpt><trkpt lat="44.4097619" lon="8.937795"><ele>43.00000000000001</ele><time>2026-04-30T16:12:57.632Z</time></trkpt><trkpt lat="44.409775" lon="8.9376993"><ele>43.0</ele><time>2026-04-30T16:13:02.704Z</time></trkpt><trkpt lat="44.4097471" lon="8.9375946"><ele>43.0</ele><time>2026-04-30T16:13:07.704Z</time></trkpt><trkpt lat="44.4097125" lon="8.9375103"><ele>43.0</ele><time>2026-04-30T16:13:11.716Z</time></trkpt><trkpt lat="44.4097436" lon="8.9374271"><ele>43.0</ele><time>2026-04-30T16:13:16.688Z</time></trkpt><trkpt lat="44.4097661" lon="8.9373341"><ele>43.00000000000001</ele><time>2026-04-30T16:13:22.704Z</time></trkpt><trkpt lat="44.40978" lon="8.9372271"><ele>43.0</ele><time>2026-04-30T16:13:27.704Z</time></trkpt><trkpt lat="44.4097893" lon="8.9371372"><ele>42.85714285714286</ele><time>2026-04-30T16:13:33.704Z</time></trkpt><trkpt lat="44.4098027" lon="8.9370458"><ele>42.714285714285715</ele><time>2026-04-30T16:13:38.615Z</time></trkpt><trkpt lat="44.4098246" lon="8.9369429"><ele>42.57142857142857</ele><time>2026-04-30T16:13:43.704Z</time></trkpt><trkpt lat="44.4098415" lon="8.9368523"><ele>42.42857142857143</ele><time>2026-04-30T16:13:48.703Z</time></trkpt><trkpt lat="44.4098665" lon="8.9367664"><ele>42.285714285714285</ele><time>2026-04-30T16:13:53.704Z</time></trkpt><trkpt lat="44.4098748" lon="8.9366685"><ele>42.142857142857146</ele><time>2026-04-30T16:13:58.705Z</time></trkpt><trkpt lat="44.4098851" lon="8.9365753"><ele>42.0</ele><time>2026-04-30T16:14:03.713Z</time></trkpt><trkpt lat="44.4099031" lon="8.9364831"><ele>42.0</ele><time>2026-04-30T16:14:09.704Z</time></trkpt><trkpt lat="44.4099303" lon="8.9363947"><ele>42.0</ele><time>2026-04-30T16:14:14.704Z</time></trkpt><trkpt lat="44.4099645" lon="8.9363192"><ele>42.0</ele><time>2026-04-30T16:14:19.71Z</time></trkpt><trkpt lat="44.4100064" lon="8.9362392"><ele>42.0</ele><time>2026-04-30T16:14:25.705Z</time></trkpt><trkpt lat="44.410047" lon="8.9361647"><ele>42.0</ele><time>2026-04-30T16:14:31.704Z</time></trkpt><trkpt lat="44.410096" lon="8.9360982"><ele>42.0</ele><time>2026-04-30T16:14:36.783Z</time></trkpt><trkpt lat="44.4101272" lon="8.9360117"><ele>42.0</ele><time>2026-04-30T16:14:42.613Z</time></trkpt><trkpt lat="44.4101553" lon="8.9359271"><ele>41.714285714285715</ele><time>2026-04-30T16:14:48.704Z</time></trkpt><trkpt lat="44.4101981" lon="8.9358624"><ele>41.42857142857143</ele><time>2026-04-30T16:14:53.705Z</time></trkpt><trkpt lat="44.410226" lon="8.9357541"><ele>41.14285714285714</ele><time>2026-04-30T16:14:57.705Z</time></trkpt><trkpt lat="44.4102473" lon="8.9356455"><ele>40.85714285714286</ele><time>2026-04-30T16:15:01.705Z</time></trkpt><trkpt lat="44.4103012" lon="8.9355952"><ele>40.57142857142857</ele><time>2026-04-30T16:15:05.705Z</time></trkpt><trkpt lat="44.4103052" lon="8.9354954"><ele>40.285714285714285</ele><time>2026-04-30T16:15:09.717Z</time></trkpt><trkpt lat="44.4102795" lon="8.9354137"><ele>40.0</ele><time>2026-04-30T16:15:14.717Z</time></trkpt><trkpt lat="44.4102701" lon="8.9353175"><ele>40.0</ele><time>2026-04-30T16:15:19.705Z</time></trkpt><trkpt lat="44.4102763" lon="8.9352177"><ele>40.0</ele><time>2026-04-30T16:15:24.704Z</time></trkpt><trkpt lat="44.4102586" lon="8.935129"><ele>40.0</ele><time>2026-04-30T16:15:29.703Z</time></trkpt><trkpt lat="44.4102399" lon="8.9350306"><ele>40.0</ele><time>2026-04-30T16:15:34.751Z</time></trkpt><trkpt lat="44.4102697" lon="8.934919"><ele>40.0</ele><time>2026-04-30T16:15:39.705Z</time></trkpt><trkpt lat="44.410294" lon="8.9348339"><ele>40.0</ele><time>2026-04-30T16:15:44.705Z</time></trkpt><trkpt lat="44.4103459" lon="8.93478"><ele>40.0</ele><time>2026-04-30T16:15:49.705Z</time></trkpt><trkpt lat="44.4104028" lon="8.934727"><ele>39.0</ele><time>2026-04-30T16:15:56.695Z</time></trkpt><trkpt lat="44.4104711" lon="8.9347361"><ele>38.0</ele><time>2026-04-30T16:16:01.705Z</time></trkpt><trkpt lat="44.4105383" lon="8.9347224"><ele>37.0</ele><time>2026-04-30T16:16:07.705Z</time></trkpt><trkpt lat="44.4106007" lon="8.9346709"><ele>36.0</ele><time>2026-04-30T16:16:13.704Z</time></trkpt><trkpt lat="44.4106669" lon="8.9346555"><ele>35.0</ele><time>2026-04-30T16:16:17.703Z</time></trkpt><trkpt lat="44.4107254" lon="8.9346159"><ele>34.0</ele><time>2026-04-30T16:16:22.704Z</time></trkpt><trkpt lat="44.4107699" lon="8.934514"><ele>33.0</ele><time>2026-04-30T16:16:27.655Z</time></trkpt><trkpt lat="44.4107915" lon="8.9344217"><ele>32.714285714285715</ele><time>2026-04-30T16:16:32.704Z</time></trkpt><trkpt lat="44.4108001" lon="8.9343329"><ele>32.42857142857143</ele><time>2026-04-30T16:16:37.708Z</time></trkpt><trkpt lat="44.410821" lon="8.9342491"><ele>32.142857142857146</ele><time>2026-04-30T16:16:42.704Z</time></trkpt><trkpt lat="44.4108444" lon="8.934163"><ele>31.857142857142858</ele><time>2026-04-30T16:16:46.704Z</time></trkpt><trkpt lat="44.410865" lon="8.9340641"><ele>31.571428571428577</ele><time>2026-04-30T16:16:51.715Z</time></trkpt><trkpt lat="44.4108858" lon="8.9339772"><ele>31.28571428571429</ele><time>2026-04-30T16:16:56.703Z</time></trkpt><trkpt lat="44.4108862" lon="8.9338834"><ele>31.0</ele><time>2026-04-30T16:17:02.703Z</time></trkpt><trkpt lat="44.4109055" lon="8.9337864"><ele>30.857142857142858</ele><time>2026-04-30T16:17:09.704Z</time></trkpt><trkpt lat="44.4109177" lon="8.933687"><ele>30.714285714285715</ele><time>2026-04-30T16:17:17.717Z</time></trkpt><trkpt lat="44.4109463" lon="8.933598"><ele>30.571428571428573</ele><time>2026-04-30T16:17:23.692Z</time></trkpt><trkpt lat="44.4109607" lon="8.9335102"><ele>30.42857142857143</ele><time>2026-04-30T16:17:32.704Z</time></trkpt><trkpt lat="44.4109666" lon="8.9334222"><ele>30.285714285714285</ele><time>2026-04-30T16:17:39.704Z</time></trkpt><trkpt lat="44.4110204" lon="8.9333326"><ele>30.142857142857146</ele><time>2026-04-30T16:17:43.722Z</time></trkpt><trkpt lat="44.411057" lon="8.9332455"><ele>30.0</ele><time>2026-04-30T16:17:48.703Z</time></trkpt><trkpt lat="44.4110905" lon="8.9331533"><ele>29.833333333333332</ele><time>2026-04-30T16:17:53.704Z</time></trkpt><trkpt lat="44.4111294" lon="8.9330786"><ele>29.666666666666664</ele><time>2026-04-30T16:17:58.704Z</time></trkpt><trkpt lat="44.4111541" lon="8.9329975"><ele>29.5</ele><time>2026-04-30T16:18:04.704Z</time></trkpt><trkpt lat="44.4111762" lon="8.9328916"><ele>29.333333333333332</ele><time>2026-04-30T16:18:09.627Z</time></trkpt><trkpt lat="44.4111965" lon="8.9327925"><ele>29.166666666666664</ele><time>2026-04-30T16:18:15.704Z</time></trkpt><trkpt lat="44.411206" lon="8.9326974"><ele>29.0</ele><time>2026-04-30T16:18:20.704Z</time></trkpt><trkpt lat="44.4112484" lon="8.9324398"><ele>29.000000000000004</ele><time>2026-04-30T16:18:35.71Z</time></trkpt><trkpt lat="44.4112817" lon="8.9323512"><ele>29.0</ele><time>2026-04-30T16:18:38.684Z</time></trkpt><trkpt lat="44.4113006" lon="8.9322545"><ele>29.000000000000004</ele><time>2026-04-30T16:18:43.703Z</time></trkpt><trkpt lat="44.411315" lon="8.9321654"><ele>29.000000000000004</ele><time>2026-04-30T16:18:48.709Z</time></trkpt><trkpt lat="44.4113333" lon="8.9320701"><ele>29.0</ele><time>2026-04-30T16:18:53.704Z</time></trkpt><trkpt lat="44.4113761" lon="8.9319666"><ele>29.000000000000004</ele><time>2026-04-30T16:18:59.704Z</time></trkpt><trkpt lat="44.4113864" lon="8.9318637"><ele>29.000000000000004</ele><time>2026-04-30T16:19:04.703Z</time></trkpt><trkpt lat="44.4114051" lon="8.9317788"><ele>30.285714285714292</ele><time>2026-04-30T16:19:09.703Z</time></trkpt><trkpt lat="44.4114185" lon="8.9316923"><ele>31.571428571428573</ele><time>2026-04-30T16:19:17.653Z</time></trkpt><trkpt lat="44.4114436" lon="8.9315996"><ele>32.85714285714286</ele><time>2026-04-30T16:19:22.703Z</time></trkpt><trkpt lat="44.4114779" lon="8.9315224"><ele>34.142857142857146</ele><time>2026-04-30T16:19:26.632Z</time></trkpt><trkpt lat="44.4115186" lon="8.9314322"><ele>35.42857142857143</ele><time>2026-04-30T16:19:31.704Z</time></trkpt><trkpt lat="44.4115604" lon="8.9313576"><ele>36.714285714285715</ele><time>2026-04-30T16:19:36.704Z</time></trkpt><trkpt lat="44.4116187" lon="8.9312942"><ele>38.0</ele><time>2026-04-30T16:19:42.722Z</time></trkpt><trkpt lat="44.4116488" lon="8.9312023"><ele>38.0</ele><time>2026-04-30T16:19:47.704Z</time></trkpt><trkpt lat="44.4116704" lon="8.931116"><ele>38.0</ele><time>2026-04-30T16:19:52.704Z</time></trkpt><trkpt lat="44.4117018" lon="8.9310306"><ele>38.0</ele><time>2026-04-30T16:19:59.704Z</time></trkpt><trkpt lat="44.4117702" lon="8.9309703"><ele>38.0</ele><time>2026-04-30T16:20:05.67Z</time></trkpt><trkpt lat="44.4118394" lon="8.9309274"><ele>38.0</ele><time>2026-04-30T16:20:09.703Z</time></trkpt><trkpt lat="44.4118947" lon="8.9308672"><ele>38.0</ele><time>2026-04-30T16:20:15.702Z</time></trkpt><trkpt lat="44.4119363" lon="8.9307867"><ele>38.0</ele><time>2026-04-30T16:20:20.714Z</time></trkpt><trkpt lat="44.4119872" lon="8.9307178"><ele>38.42857142857142</ele><time>2026-04-30T16:20:26.704Z</time></trkpt><trkpt lat="44.4120263" lon="8.9306487"><ele>38.85714285714286</ele><time>2026-04-30T16:20:31.628Z</time></trkpt><trkpt lat="44.412085" lon="8.9305873"><ele>39.285714285714285</ele><time>2026-04-30T16:20:37.7Z</time></trkpt><trkpt lat="44.4121285" lon="8.9305228"><ele>39.71428571428571</ele><time>2026-04-30T16:20:44.716Z</time></trkpt><trkpt lat="44.4121825" lon="8.9304585"><ele>40.14285714285714</ele><time>2026-04-30T16:20:52.704Z</time></trkpt><trkpt lat="44.4122321" lon="8.930396"><ele>40.57142857142857</ele><time>2026-04-30T16:20:58.703Z</time></trkpt><trkpt lat="44.412282" lon="8.9303401"><ele>41.0</ele><time>2026-04-30T16:21:03.694Z</time></trkpt><trkpt lat="44.4123477" lon="8.9303001"><ele>40.99999999999999</ele><time>2026-04-30T16:21:06.704Z</time></trkpt><trkpt lat="44.4124178" lon="8.9302666"><ele>41.0</ele><time>2026-04-30T16:21:10.702Z</time></trkpt><trkpt lat="44.412479" lon="8.9302303"><ele>41.0</ele><time>2026-04-30T16:21:14.64Z</time></trkpt><trkpt lat="44.4125425" lon="8.9301835"><ele>41.0</ele><time>2026-04-30T16:21:19.703Z</time></trkpt><trkpt lat="44.4126131" lon="8.9301489"><ele>41.0</ele><time>2026-04-30T16:21:25.704Z</time></trkpt><trkpt lat="44.4126797" lon="8.9301136"><ele>40.99999999999999</ele><time>2026-04-30T16:21:31.617Z</time></trkpt><trkpt lat="44.4127518" lon="8.930104"><ele>41.0</ele><time>2026-04-30T16:21:38.704Z</time></trkpt><trkpt lat="44.4127781" lon="8.9300177"><ele>38.857142857142854</ele><time>2026-04-30T16:21:43.704Z</time></trkpt><trkpt lat="44.4127621" lon="8.9299291"><ele>36.714285714285715</ele><time>2026-04-30T16:21:47.699Z</time></trkpt><trkpt lat="44.4128013" lon="8.9298414"><ele>34.57142857142857</ele><time>2026-04-30T16:21:51.704Z</time></trkpt><trkpt lat="44.4127951" lon="8.9297513"><ele>32.42857142857143</ele><time>2026-04-30T16:21:55.703Z</time></trkpt><trkpt lat="44.412809" lon="8.9296515"><ele>30.285714285714285</ele><time>2026-04-30T16:22:01.705Z</time></trkpt><trkpt lat="44.4128211" lon="8.9295496"><ele>28.142857142857142</ele><time>2026-04-30T16:22:07.596Z</time></trkpt><trkpt lat="44.4128233" lon="8.9294478"><ele>26.0</ele><time>2026-04-30T16:22:12.703Z</time></trkpt><trkpt lat="44.4127874" lon="8.9293747"><ele>26.0</ele><time>2026-04-30T16:22:15.704Z</time></trkpt><trkpt lat="44.4127198" lon="8.9293755"><ele>26.0</ele><time>2026-04-30T16:22:20.704Z</time></trkpt><trkpt lat="44.4126529" lon="8.9293697"><ele>26.0</ele><time>2026-04-30T16:22:26.704Z</time></trkpt><trkpt lat="44.4124388" lon="8.9293274"><ele>26.0</ele><time>2026-04-30T16:22:47.707Z</time></trkpt><trkpt lat="44.4123628" lon="8.9293217"><ele>26.0</ele><time>2026-04-30T16:22:50.704Z</time></trkpt><trkpt lat="44.4122953" lon="8.9292953"><ele>26.0</ele><time>2026-04-30T16:22:55.703Z</time></trkpt><trkpt lat="44.4122091" lon="8.9292748"><ele>26.0</ele><time>2026-04-30T16:23:34.642Z</time></trkpt><trkpt lat="44.4121402" lon="8.9292644"><ele>26.0</ele><time>2026-04-30T16:23:38.703Z</time></trkpt><trkpt lat="44.412058" lon="8.9292661"><ele>26.0</ele><time>2026-04-30T16:23:43.704Z</time></trkpt><trkpt lat="44.4119943" lon="8.9292761"><ele>26.0</ele><time>2026-04-30T16:23:46.704Z</time></trkpt><trkpt lat="44.4119791" lon="8.9293688"><ele>26.0</ele><time>2026-04-30T16:23:55.702Z</time></trkpt><trkpt lat="44.4119657" lon="8.9294556"><ele>26.0</ele><time>2026-04-30T16:24:01.609Z</time></trkpt><trkpt lat="44.4119258" lon="8.929541"><ele>26.285714285714285</ele><time>2026-04-30T16:24:07.704Z</time></trkpt><trkpt lat="44.4118909" lon="8.9296381"><ele>26.571428571428573</ele><time>2026-04-30T16:24:12.704Z</time></trkpt><trkpt lat="44.4118548" lon="8.929732"><ele>26.857142857142858</ele><time>2026-04-30T16:24:18.703Z</time></trkpt><trkpt lat="44.4118356" lon="8.9298345"><ele>27.142857142857142</ele><time>2026-04-30T16:24:24.704Z</time></trkpt><trkpt lat="44.4118737" lon="8.9299189"><ele>27.42857142857143</ele><time>2026-04-30T16:24:29.703Z</time></trkpt><trkpt lat="44.4119325" lon="8.9299567"><ele>27.714285714285715</ele><time>2026-04-30T16:24:37.704Z</time></trkpt><trkpt lat="44.4119791" lon="8.9300331"><ele>28.0</ele><time>2026-04-30T16:24:44.704Z</time></trkpt><trkpt lat="44.4120242" lon="8.9301039"><ele>29.000000000000004</ele><time>2026-04-30T16:24:50.634Z</time></trkpt><trkpt lat="44.412078" lon="8.9301701"><ele>30.0</ele><time>2026-04-30T16:24:57.703Z</time></trkpt><trkpt lat="44.4121202" lon="8.9302541"><ele>31.0</ele><time>2026-04-30T16:25:01.716Z</time></trkpt><trkpt lat="44.412158" lon="8.9303296"><ele>32.0</ele><time>2026-04-30T16:25:04.704Z</time></trkpt><trkpt lat="44.4122307" lon="8.9303473"><ele>33.0</ele><time>2026-04-30T16:25:11.736Z</time></trkpt><trkpt lat="44.4123169" lon="8.9302806"><ele>34.0</ele><time>2026-04-30T16:25:16.704Z</time></trkpt><trkpt lat="44.4123865" lon="8.9302497"><ele>34.99999999999999</ele><time>2026-04-30T16:25:21.652Z</time></trkpt><trkpt lat="44.4124496" lon="8.9302153"><ele>36.0</ele><time>2026-04-30T16:25:27.704Z</time></trkpt><trkpt lat="44.412516" lon="8.9301795"><ele>37.0</ele><time>2026-04-30T16:25:32.774Z</time></trkpt><trkpt lat="44.4125702" lon="8.9301336"><ele>38.0</ele><time>2026-04-30T16:25:36.618Z</time></trkpt><trkpt lat="44.4126262" lon="8.9300801"><ele>39.0</ele><time>2026-04-30T16:25:40.703Z</time></trkpt><trkpt lat="44.4126996" lon="8.9300507"><ele>39.99999999999999</ele><time>2026-04-30T16:25:45.692Z</time></trkpt><trkpt lat="44.4127638" lon="8.9300538"><ele>41.0</ele><time>2026-04-30T16:25:49.696Z</time></trkpt><trkpt lat="44.4128343" lon="8.9300252"><ele>39.14285714285714</ele><time>2026-04-30T16:25:56.703Z</time></trkpt><trkpt lat="44.4128995" lon="8.9300041"><ele>37.285714285714285</ele><time>2026-04-30T16:26:01.677Z</time></trkpt><trkpt lat="44.4129727" lon="8.9300067"><ele>35.42857142857143</ele><time>2026-04-30T16:26:05.703Z</time></trkpt><trkpt lat="44.4130451" lon="8.9299814"><ele>33.57142857142857</ele><time>2026-04-30T16:26:11.712Z</time></trkpt><trkpt lat="44.4131134" lon="8.9299676"><ele>31.714285714285715</ele><time>2026-04-30T16:26:16.704Z</time></trkpt><trkpt lat="44.4131871" lon="8.9299614"><ele>29.857142857142858</ele><time>2026-04-30T16:26:21.704Z</time></trkpt><trkpt lat="44.4132521" lon="8.9299712"><ele>28.0</ele><time>2026-04-30T16:26:26.704Z</time></trkpt><trkpt lat="44.4133194" lon="8.9299913"><ele>28.0</ele><time>2026-04-30T16:26:32.703Z</time></trkpt><trkpt lat="44.4133861" lon="8.9299962"><ele>28.0</ele><time>2026-04-30T16:26:37.633Z</time></trkpt><trkpt lat="44.4134574" lon="8.9299812"><ele>28.0</ele><time>2026-04-30T16:26:42.703Z</time></trkpt><trkpt lat="44.4135154" lon="8.9299325"><ele>28.0</ele><time>2026-04-30T16:26:48.659Z</time></trkpt><trkpt lat="44.4135864" lon="8.9299252"><ele>28.0</ele><time>2026-04-30T16:26:54.704Z</time></trkpt><trkpt lat="44.4136557" lon="8.9298919"><ele>28.0</ele><time>2026-04-30T16:26:59.704Z</time></trkpt><trkpt lat="44.4137237" lon="8.9298655"><ele>28.0</ele><time>2026-04-30T16:27:03.704Z</time></trkpt><trkpt lat="44.4137875" lon="8.9298312"><ele>28.57142857142857</ele><time>2026-04-30T16:27:07.705Z</time></trkpt><trkpt lat="44.4138606" lon="8.9298054"><ele>29.142857142857142</ele><time>2026-04-30T16:27:13.703Z</time></trkpt><trkpt lat="44.4139302" lon="8.9297887"><ele>29.714285714285715</ele><time>2026-04-30T16:27:19.628Z</time></trkpt><trkpt lat="44.4139979" lon="8.9297702"><ele>30.285714285714285</ele><time>2026-04-30T16:27:24.703Z</time></trkpt><trkpt lat="44.4140623" lon="8.9297526"><ele>30.857142857142854</ele><time>2026-04-30T16:27:29.71Z</time></trkpt><trkpt lat="44.4141275" lon="8.9297369"><ele>31.428571428571427</ele><time>2026-04-30T16:27:33.704Z</time></trkpt><trkpt lat="44.414196" lon="8.9297494"><ele>32.0</ele><time>2026-04-30T16:27:38.704Z</time></trkpt><trkpt lat="44.4142531" lon="8.9298091"><ele>32.0</ele><time>2026-04-30T16:27:43.716Z</time></trkpt><trkpt lat="44.4143139" lon="8.9298403"><ele>31.999999999999996</ele><time>2026-04-30T16:27:48.703Z</time></trkpt><trkpt lat="44.4143796" lon="8.9298772"><ele>32.0</ele><time>2026-04-30T16:27:53.704Z</time></trkpt><trkpt lat="44.4144442" lon="8.9299161"><ele>32.0</ele><time>2026-04-30T16:27:58.703Z</time></trkpt><trkpt lat="44.4145101" lon="8.9299547"><ele>31.999999999999996</ele><time>2026-04-30T16:28:03.726Z</time></trkpt><trkpt lat="44.4145726" lon="8.9299871"><ele>32.0</ele><time>2026-04-30T16:28:08.708Z</time></trkpt><trkpt lat="44.4146472" lon="8.9299838"><ele>32.0</ele><time>2026-04-30T16:28:13.703Z</time></trkpt><trkpt lat="44.4147143" lon="8.9299472"><ele>36.0</ele><time>2026-04-30T16:28:18.703Z</time></trkpt><trkpt lat="44.4147812" lon="8.9299343"><ele>36.0</ele><time>2026-04-30T16:28:24.701Z</time></trkpt><trkpt lat="44.414843" lon="8.9299829"><ele>36.0</ele><time>2026-04-30T16:28:29.702Z</time></trkpt><trkpt lat="44.4149141" lon="8.9299824"><ele>36.0</ele><time>2026-04-30T16:28:35.703Z</time></trkpt><trkpt lat="44.4149688" lon="8.9299142"><ele>36.0</ele><time>2026-04-30T16:28:41.633Z</time></trkpt><trkpt lat="44.4150017" lon="8.9298363"><ele>36.0</ele><time>2026-04-30T16:28:46.633Z</time></trkpt><trkpt lat="44.415057" lon="8.9297928"><ele>36.0</ele><time>2026-04-30T16:28:49.702Z</time></trkpt></trkseg></trk></gpx>